New Bedford, Massachusetts
Current Conditions -  °F | °C
As of 4:53 PM on Sunday 25 Jan 2015 (Local Time) from KEWB Reporting Station
Clear Clear  
Wind Chill: 24°   Ceiling: Unl
Heat Index: 32°   Visibility: 10mi
Dew Point: 13°   Wind: 10mph
Humidity: 45%   Direction: 290°WNW
Pressure: 29.78"   Gusts: NA
Location:  41.64°N, 70.93°W
Report Text: KEWB 252153Z 29009KT 10SM CLR 00/M11 A2978 RMK AO2 SLP085 T00001106
Loading
Personal Weather Stations






























Interactive Weather Map New forecast layout! Learn more

10-Day Weather Forecast

Advertisements
Track Severe Weather on mobile